createdAt,value
2023-02-01T00:00:00.103Z,97731.50
2023-02-01T00:02:33.191Z,97728.41
2023-02-01T00:05:03.580Z,97719.97
2023-02-01T00:07:33.940Z,97722.28
2023-02-01T00:10:04.631Z,97726.53
2023-02-01T00:12:35.503Z,97733.56
2023-02-01T00:15:06.294Z,97722.91
2023-02-01T00:17:39.355Z,97721.91
2023-02-01T00:20:11.920Z,97716.09
2023-02-01T00:22:42.283Z,97718.78
2023-02-01T00:25:13.146Z,97727.75
2023-02-01T00:27:43.544Z,97721.53
2023-02-01T00:30:16.244Z,97735.88
2023-02-01T00:32:49.230Z,97739.44
2023-02-01T00:35:19.787Z,97744.34
2023-02-01T00:37:50.211Z,97729.63
2023-02-01T00:40:21.146Z,97728.75
2023-02-01T00:42:51.421Z,97735.31
2023-02-01T00:45:21.871Z,97735.53
2023-02-01T00:47:54.976Z,97729.94
2023-02-01T00:50:25.373Z,97732.91
2023-02-01T00:52:55.719Z,97739.75
2023-02-01T00:55:26.127Z,97730.50
2023-02-01T00:57:56.429Z,97736.19
2023-02-01T01:00:27.161Z,97737.41
2023-02-01T01:03:00.188Z,97738.03
2023-02-01T01:05:31.460Z,97736.28
2023-02-01T01:08:01.536Z,97746.75
2023-02-01T01:10:31.853Z,97744.84
2023-02-01T01:13:02.145Z,97736.84
2023-02-01T01:15:32.602Z,97742.66
2023-02-01T01:18:05.831Z,97735.19
2023-02-01T01:20:38.817Z,97742.53
2023-02-01T01:23:10.125Z,97750.88
2023-02-01T01:25:41.922Z,97738.25
2023-02-01T01:28:12.284Z,97739.25
2023-02-01T01:30:42.625Z,97742.75
2023-02-01T01:33:15.595Z,97732.66
2023-02-01T01:35:46.384Z,97744.63
2023-02-01T01:38:16.934Z,97738.41
2023-02-01T01:40:50.824Z,97740.16
2023-02-01T01:43:23.744Z,97748.84
2023-02-01T01:45:56.010Z,97736.50
2023-02-01T01:48:32.093Z,97732.25
2023-02-01T01:51:09.447Z,97741.56
2023-02-01T01:53:47.183Z,97736.09
2023-02-01T01:56:18.051Z,97725.41
2023-02-01T01:58:48.899Z,97723.97
2023-02-01T02:01:19.515Z,97730.91
2023-02-01T02:03:54.354Z,97726.72
2023-02-01T02:06:37.563Z,97721.47
2023-02-01T02:09:08.782Z,97715.78
2023-02-01T02:11:39.436Z,97718.22
2023-02-01T02:14:13.871Z,97724.13
2023-02-01T02:17:18.594Z,97718.84
2023-02-01T02:20:49.713Z,97709.72
2023-02-01T02:24:06.219Z,97697.88
2023-02-01T02:26:54.784Z,97706.41
2023-02-01T02:30:14.075Z,97702.91
2023-02-01T02:33:25.371Z,97693.34
2023-02-01T02:36:04.973Z,97694.53
2023-02-01T02:38:43.553Z,97697.06
2023-02-01T02:41:41.980Z,97687.81
2023-02-01T02:44:33.492Z,97683.19
2023-02-01T02:47:21.222Z,97671.56
2023-02-01T02:50:09.956Z,97676.09
2023-02-01T02:53:02.237Z,97664.34
2023-02-01T02:55:34.827Z,97664.56
2023-02-01T02:58:19.217Z,97664.03
2023-02-01T03:01:02.962Z,97662.59
2023-02-01T03:03:45.742Z,97662.72
2023-02-01T03:06:19.809Z,97666.88
2023-02-01T03:08:58.010Z,97664.91
2023-02-01T03:11:51.395Z,97670.50
2023-02-01T03:14:22.665Z,97669.72
2023-02-01T03:16:55.530Z,97663.22
2023-02-01T03:19:29.872Z,97663.34
2023-02-01T03:22:05.230Z,97661.78
2023-02-01T03:24:44.200Z,97659.94
2023-02-01T03:27:21.393Z,97666.97
2023-02-01T03:29:59.071Z,97670.22
2023-02-01T03:32:29.795Z,97671.75
2023-02-01T03:35:00.776Z,97657.84
2023-02-01T03:37:32.616Z,97660.16
2023-02-01T03:40:12.657Z,97661.47
2023-02-01T03:42:47.833Z,97660.47
2023-02-01T03:45:26.466Z,97651.47
2023-02-01T03:48:01.331Z,97662.75
2023-02-01T03:50:34.953Z,97663.53
2023-02-01T03:53:10.693Z,97660.78
2023-02-01T03:55:43.835Z,97645.88
2023-02-01T03:58:18.339Z,97661.75
2023-02-01T04:00:54.327Z,97660.31
2023-02-01T04:03:26.035Z,97658.47
2023-02-01T04:05:57.220Z,97651.09
2023-02-01T04:08:30.964Z,97643.09
2023-02-01T04:11:03.828Z,97649.34
2023-02-01T04:13:34.123Z,97640.06
2023-02-01T04:16:04.644Z,97634.56
2023-02-01T04:18:34.948Z,97628.78
2023-02-01T04:21:05.716Z,97637.00
2023-02-01T04:23:37.342Z,97644.44
2023-02-01T04:26:10.432Z,97634.25
2023-02-01T04:28:40.748Z,97625.78
2023-02-01T04:31:11.161Z,97621.59
2023-02-01T04:33:41.603Z,97632.47
2023-02-01T04:36:12.345Z,97628.97
2023-02-01T04:38:42.736Z,97625.09
2023-02-01T04:41:15.585Z,97623.25
2023-02-01T04:43:45.953Z,97618.13
2023-02-01T04:46:16.341Z,97628.31
2023-02-01T04:48:46.949Z,97619.44
2023-02-01T04:51:19.159Z,97612.31
2023-02-01T04:53:50.053Z,97607.69
2023-02-01T04:56:23.118Z,97607.81
2023-02-01T04:58:53.541Z,97598.03
2023-02-01T05:01:25.567Z,97599.94
2023-02-01T05:03:55.936Z,97593.56
2023-02-01T05:06:26.528Z,97587.97
2023-02-01T05:08:56.958Z,97584.47
2023-02-01T05:11:42.223Z,97581.81
2023-02-01T05:14:12.490Z,97577.31
2023-02-01T05:16:42.793Z,97571.63
2023-02-01T05:19:13.442Z,97567.78
2023-02-01T05:21:44.052Z,97560.78
2023-02-01T05:24:15.910Z,97555.59
2023-02-01T05:26:49.006Z,97557.25
2023-02-01T05:29:21.471Z,97551.88
2023-02-01T05:31:52.609Z,97540.28
2023-02-01T05:34:23.122Z,97530.94
2023-02-01T05:36:53.415Z,97540.34
2023-02-01T05:39:23.843Z,97535.75
2023-02-01T05:41:56.797Z,97540.59
2023-02-01T05:44:27.167Z,97535.53
2023-02-01T05:46:57.508Z,97542.66
2023-02-01T05:49:27.885Z,97536.63
2023-02-01T05:52:00.280Z,97546.38
2023-02-01T05:54:31.300Z,97526.44
2023-02-01T05:57:04.320Z,97541.03
2023-02-01T05:59:34.623Z,97527.97
2023-02-01T06:02:04.924Z,97528.94
2023-02-01T06:04:35.215Z,97526.66
2023-02-01T06:07:08.769Z,97545.84
2023-02-01T06:09:39.534Z,97530.59
2023-02-01T06:12:13.389Z,97533.66
2023-02-01T06:14:44.435Z,97536.41
2023-02-01T06:17:15.083Z,97530.69
2023-02-01T06:19:46.050Z,97528.41
2023-02-01T06:22:16.840Z,97534.75
2023-02-01T06:24:47.641Z,97524.34
2023-02-01T06:27:20.653Z,97523.69
2023-02-01T06:29:50.958Z,97517.75
2023-02-01T06:32:24.070Z,97530.25
2023-02-01T06:34:54.157Z,97531.69
2023-02-01T06:37:25.979Z,97534.53
2023-02-01T06:39:56.382Z,97538.06
2023-02-01T06:42:29.427Z,97538.59
2023-02-01T06:44:59.692Z,97535.09
2023-02-01T06:47:30.220Z,97541.88
2023-02-01T06:50:00.513Z,97544.06
2023-02-01T06:52:30.890Z,97539.44
2023-02-01T06:55:01.206Z,97540.00
2023-02-01T06:57:35.421Z,97539.56
2023-02-01T07:00:07.701Z,97532.88
2023-02-01T07:02:39.256Z,97529.16
2023-02-01T07:05:10.453Z,97524.19
2023-02-01T07:07:40.519Z,97528.47
2023-02-01T07:10:12.529Z,97519.47
2023-02-01T07:12:45.729Z,97514.97
2023-02-01T07:15:16.025Z,97511.03
2023-02-01T07:17:47.908Z,97511.19
2023-02-01T07:20:18.374Z,97514.13
2023-02-01T07:22:48.721Z,97515.22
2023-02-01T07:25:19.297Z,97517.53
2023-02-01T07:27:52.425Z,97508.34
2023-02-01T07:30:23.313Z,97508.00
2023-02-01T07:32:53.925Z,97510.22
2023-02-01T07:35:24.584Z,97502.41
2023-02-01T07:37:54.948Z,97515.34
2023-02-01T07:40:29.827Z,97505.50
2023-02-01T07:43:02.791Z,97494.84
2023-02-01T07:45:35.245Z,97491.56
2023-02-01T07:48:08.333Z,97496.50
2023-02-01T07:50:38.677Z,97501.25
2023-02-01T07:53:08.988Z,97483.34
2023-02-01T07:55:42.001Z,97485.66
2023-02-01T07:58:14.891Z,97486.97
2023-02-01T08:00:57.361Z,97490.47
2023-02-01T08:03:27.750Z,97493.53
2023-02-01T08:05:58.785Z,97489.16
2023-02-01T08:08:29.287Z,97495.50
2023-02-01T08:11:02.303Z,97476.31
2023-02-01T08:13:35.397Z,97482.03
2023-02-01T08:16:09.102Z,97465.69
2023-02-01T08:18:40.100Z,97470.75
2023-02-01T08:21:14.004Z,97476.53
2023-02-01T08:23:45.934Z,97472.50
2023-02-01T08:26:19.567Z,97471.81
2023-02-01T08:28:55.495Z,97465.69
2023-02-01T08:31:28.890Z,97467.78
2023-02-01T08:34:02.740Z,97468.44
2023-02-01T08:36:35.061Z,97474.34
2023-02-01T08:39:10.011Z,97466.19
2023-02-01T08:41:41.025Z,97470.91
2023-02-01T08:44:13.991Z,97467.53
2023-02-01T08:46:44.373Z,97476.84
2023-02-01T08:49:14.708Z,97477.69
2023-02-01T08:51:44.952Z,97473.75
2023-02-01T08:54:15.291Z,97458.16
2023-02-01T08:56:45.660Z,97460.34
2023-02-01T08:59:18.605Z,97462.81
2023-02-01T09:01:48.931Z,97463.34
2023-02-01T09:04:19.372Z,97478.81
2023-02-01T09:06:49.805Z,97465.22
2023-02-01T09:09:20.136Z,97468.22
2023-02-01T09:11:51.286Z,97471.72
2023-02-01T09:14:24.508Z,97468.31
2023-02-01T09:16:54.956Z,97472.28
2023-02-01T09:19:27.108Z,97472.25
2023-02-01T09:21:57.912Z,97476.97
2023-02-01T09:24:28.718Z,97474.56
2023-02-01T09:26:59.265Z,97475.44
2023-02-01T09:29:32.815Z,97482.44
2023-02-01T09:32:04.613Z,97486.06
2023-02-01T09:34:35.671Z,97485.22
2023-02-01T09:37:06.275Z,97490.91
2023-02-01T09:39:36.680Z,97475.22
2023-02-01T09:42:22.931Z,97494.06
2023-02-01T09:45:13.963Z,97498.53
2023-02-01T09:47:51.951Z,97480.91
2023-02-01T09:50:26.530Z,97476.97
2023-02-01T09:53:04.589Z,97479.06
2023-02-01T09:55:42.364Z,97486.75
2023-02-01T09:58:20.690Z,97477.44
2023-02-01T10:00:57.989Z,97489.16
2023-02-01T10:03:34.501Z,97502.66
2023-02-01T10:06:31.051Z,97489.47
2023-02-01T10:09:31.990Z,97501.78
2023-02-01T10:12:36.884Z,97500.56
2023-02-01T10:15:23.340Z,97518.03
2023-02-01T10:18:12.205Z,97500.44
2023-02-01T10:20:57.172Z,97530.19
2023-02-01T10:24:16.857Z,97530.84
2023-02-01T10:26:53.767Z,97534.78
2023-02-01T10:29:29.819Z,97523.47
2023-02-01T10:32:00.603Z,97522.47
2023-02-01T10:34:37.811Z,97517.75
2023-02-01T10:37:28.445Z,97523.97
2023-02-01T10:40:00.666Z,97538.47
2023-02-01T10:42:32.952Z,97531.38
2023-02-01T10:45:08.313Z,97535.94
2023-02-01T10:47:38.588Z,97530.53
2023-02-01T10:50:23.646Z,97527.69
2023-02-01T10:52:59.266Z,97535.13
2023-02-01T10:55:41.385Z,97531.81
2023-02-01T10:58:21.401Z,97531.56
2023-02-01T11:00:57.443Z,97539.00
2023-02-01T11:03:43.520Z,97534.38
2023-02-01T11:06:26.344Z,97523.53
2023-02-01T11:08:59.605Z,97538.03
2023-02-01T11:11:30.413Z,97542.00
2023-02-01T11:14:04.392Z,97542.84
2023-02-01T11:16:43.094Z,97537.47
2023-02-01T11:19:19.775Z,97513.06
2023-02-01T11:21:55.175Z,97535.53
2023-02-01T11:24:29.787Z,97510.69
2023-02-01T11:27:04.666Z,97531.78
2023-02-01T11:29:43.237Z,97516.66
2023-02-01T11:32:17.159Z,97518.72
2023-02-01T11:34:51.975Z,97505.75
2023-02-01T11:37:30.491Z,97519.25
2023-02-01T11:40:03.136Z,97509.72
2023-02-01T11:42:34.195Z,97518.88
2023-02-01T11:45:25.072Z,97495.63
2023-02-01T11:47:58.761Z,97509.25
2023-02-01T11:50:39.300Z,97494.84
2023-02-01T11:53:32.337Z,97498.16
2023-02-01T11:56:18.974Z,97500.75
2023-02-01T11:59:10.417Z,97478.16
2023-02-01T12:02:01.653Z,97490.78
2023-02-01T12:05:09.952Z,97491.34
2023-02-01T12:08:02.612Z,97501.16
2023-02-01T12:10:50.255Z,97490.44
2023-02-01T12:13:40.421Z,97486.19
2023-02-01T12:16:26.643Z,97491.44
2023-02-01T12:19:22.054Z,97480.88
2023-02-01T12:22:09.860Z,97479.94
2023-02-01T12:25:19.922Z,97471.44
2023-02-01T12:28:18.839Z,97482.06
2023-02-01T12:31:24.931Z,97485.03
2023-02-01T12:34:26.217Z,97480.28
2023-02-01T12:37:07.834Z,97477.56
2023-02-01T12:39:46.696Z,97491.66
2023-02-01T12:42:24.169Z,97469.34
2023-02-01T12:45:05.576Z,97475.88
2023-02-01T12:47:44.208Z,97479.09
2023-02-01T12:50:23.279Z,97464.13
2023-02-01T12:52:56.284Z,97462.16
2023-02-01T12:55:35.148Z,97455.00
2023-02-01T12:58:17.782Z,97466.41
2023-02-01T13:00:57.092Z,97467.50
2023-02-01T13:03:40.398Z,97471.00
2023-02-01T13:06:17.964Z,97465.34
2023-02-01T13:08:52.627Z,97467.03
2023-02-01T13:11:30.278Z,97445.19
2023-02-01T13:14:09.553Z,97467.22
2023-02-01T13:16:48.177Z,97454.06
2023-02-01T13:19:27.503Z,97457.09
2023-02-01T13:22:03.042Z,97454.22
2023-02-01T13:24:40.309Z,97450.13
2023-02-01T13:27:14.362Z,97432.38
2023-02-01T13:29:55.010Z,97440.47
2023-02-01T13:33:53.355Z,97426.84
2023-02-01T13:36:29.130Z,97444.59
2023-02-01T13:39:44.416Z,97439.81
2023-02-01T13:42:23.154Z,97433.03
2023-02-01T13:44:56.997Z,97436.63
2023-02-01T13:47:35.845Z,97433.53
2023-02-01T13:50:17.288Z,97433.81
2023-02-01T13:52:49.865Z,97435.97
2023-02-01T13:55:36.123Z,97449.69
2023-02-01T13:58:17.759Z,97438.53
2023-02-01T14:00:48.509Z,97430.19
2023-02-01T14:03:26.294Z,97440.56
2023-02-01T14:06:21.070Z,97435.63
2023-02-01T14:09:18.383Z,97437.72
2023-02-01T14:11:52.261Z,97433.13
2023-02-01T14:14:56.516Z,97425.72
2023-02-01T14:17:39.137Z,97420.81
2023-02-01T14:20:54.416Z,97410.41
2023-02-01T14:23:29.062Z,97404.59
2023-02-01T14:26:14.073Z,97404.50
2023-02-01T14:29:10.457Z,97398.50
2023-02-01T14:31:55.570Z,97393.91
2023-02-01T14:34:35.915Z,97386.88
2023-02-01T14:37:11.443Z,97383.78
2023-02-01T14:39:58.017Z,97379.81
2023-02-01T14:42:37.546Z,97383.34
2023-02-01T14:45:51.747Z,97396.81
2023-02-01T14:48:49.306Z,97386.28
2023-02-01T14:51:21.810Z,97378.63
2023-02-01T14:53:55.306Z,97373.66
2023-02-01T14:56:26.457Z,97386.44
2023-02-01T14:59:06.781Z,97375.00
2023-02-01T15:01:40.147Z,97373.91
2023-02-01T15:04:16.132Z,97372.19
2023-02-01T15:06:50.086Z,97356.63
2023-02-01T15:09:30.898Z,97379.28
2023-02-01T15:12:05.356Z,97378.66
2023-02-01T15:14:39.082Z,97363.38
2023-02-01T15:17:24.704Z,97364.78
2023-02-01T15:19:58.584Z,97358.84
2023-02-01T15:22:30.614Z,97354.72
2023-02-01T15:25:04.763Z,97343.66
2023-02-01T15:27:37.092Z,97358.47
2023-02-01T15:30:12.041Z,97347.06
2023-02-01T15:32:44.248Z,97334.97
2023-02-01T15:35:47.753Z,97336.25
2023-02-01T15:38:44.877Z,97323.66
2023-02-01T15:41:21.664Z,97326.66
2023-02-01T15:44:09.441Z,97345.69
2023-02-01T15:46:43.675Z,97340.84
2023-02-01T15:49:27.291Z,97334.13
2023-02-01T15:51:59.207Z,97335.34
2023-02-01T15:54:33.327Z,97318.34
2023-02-01T15:57:07.814Z,97314.25
2023-02-01T15:59:45.657Z,97322.06
2023-02-01T16:02:33.596Z,97304.97
2023-02-01T16:05:04.693Z,97306.53
2023-02-01T16:07:38.181Z,97315.34
2023-02-01T16:10:30.114Z,97305.28
2023-02-01T16:13:03.105Z,97305.16
2023-02-01T16:15:33.541Z,97310.41
2023-02-01T16:18:03.881Z,97298.31
2023-02-01T16:20:36.320Z,97296.75
2023-02-01T16:23:07.673Z,97284.94
2023-02-01T16:25:38.748Z,97277.00
2023-02-01T16:28:12.079Z,97268.97
2023-02-01T16:30:42.952Z,97272.34
2023-02-01T16:33:21.807Z,97300.22
2023-02-01T16:35:53.376Z,97278.13
2023-02-01T16:38:25.123Z,97287.28
2023-02-01T16:40:55.424Z,97270.47
2023-02-01T16:43:30.555Z,97275.19
2023-02-01T16:46:06.387Z,97274.72
2023-02-01T16:48:39.906Z,97279.53
2023-02-01T16:51:15.557Z,97265.13
2023-02-01T16:53:54.283Z,97294.56
2023-02-01T16:56:28.005Z,97282.56
2023-02-01T16:59:01.290Z,97331.56
2023-02-01T17:01:31.860Z,97401.91
2023-02-01T17:04:03.535Z,97435.69
2023-02-01T17:06:34.611Z,97449.56
2023-02-01T17:09:05.476Z,97435.56
2023-02-01T17:11:36.139Z,97424.28
2023-02-01T17:14:19.100Z,97410.91
2023-02-01T17:16:51.796Z,97414.97
2023-02-01T17:19:26.367Z,97412.25
2023-02-01T17:21:59.988Z,97397.56
2023-02-01T17:24:46.827Z,97393.91
2023-02-01T17:27:20.233Z,97394.16
2023-02-01T17:29:54.019Z,97386.47
2023-02-01T17:32:27.767Z,97383.91
2023-02-01T17:34:59.538Z,97404.31
2023-02-01T17:37:33.536Z,97384.84
2023-02-01T17:40:04.601Z,97365.56
2023-02-01T17:42:36.767Z,97359.41
2023-02-01T17:45:27.271Z,97367.34
2023-02-01T17:47:58.415Z,97369.53
2023-02-01T17:50:31.777Z,97373.81
2023-02-01T17:53:03.200Z,97374.53
2023-02-01T17:55:35.523Z,97391.50
2023-02-01T17:58:05.944Z,97384.41
2023-02-01T18:00:39.224Z,97380.38
2023-02-01T18:03:10.115Z,97400.72
2023-02-01T18:05:50.986Z,97403.69
2023-02-01T18:08:21.842Z,97410.81
2023-02-01T18:10:54.956Z,97414.72
2023-02-01T18:13:25.837Z,97415.16
2023-02-01T18:16:00.028Z,97420.97
2023-02-01T18:18:31.370Z,97420.88
2023-02-01T18:21:01.645Z,97412.59
2023-02-01T18:23:32.016Z,97411.06
2023-02-01T18:26:02.327Z,97404.88
2023-02-01T18:28:32.792Z,97419.25
2023-02-01T18:31:08.105Z,97416.53
2023-02-01T18:33:38.486Z,97416.53
2023-02-01T18:36:09.669Z,97413.00
2023-02-01T18:38:39.812Z,97412.06
2023-02-01T18:41:14.249Z,97416.84
2023-02-01T18:43:45.332Z,97432.22
2023-02-01T18:46:19.379Z,97419.25
2023-02-01T18:48:49.769Z,97423.84
2023-02-01T18:51:23.805Z,97426.31
2023-02-01T18:53:54.601Z,97428.63
2023-02-01T18:56:25.006Z,97433.41
2023-02-01T18:58:55.560Z,97428.03
2023-02-01T19:01:28.828Z,97442.16
2023-02-01T19:04:03.470Z,97436.16
2023-02-01T19:06:41.527Z,97438.03
2023-02-01T19:09:11.858Z,97449.91
2023-02-01T19:11:44.380Z,97449.56
2023-02-01T19:14:14.685Z,97440.56
2023-02-01T19:16:47.778Z,97446.41
2023-02-01T19:19:18.089Z,97458.09
2023-02-01T19:21:48.432Z,97469.72
2023-02-01T19:24:18.867Z,97461.25
2023-02-01T19:26:50.347Z,97455.44
2023-02-01T19:29:20.841Z,97465.50
2023-02-01T19:31:53.920Z,97468.41
2023-02-01T19:34:24.435Z,97472.88
2023-02-01T19:36:55.244Z,97475.09
2023-02-01T19:39:25.644Z,97478.94
2023-02-01T19:41:56.104Z,97462.03
2023-02-01T19:44:28.279Z,97476.91
2023-02-01T19:47:01.162Z,97473.25
2023-02-01T19:49:31.503Z,97475.81
2023-02-01T19:52:01.937Z,97479.72
2023-02-01T19:54:41.053Z,97473.59
2023-02-01T19:57:11.454Z,97468.59
2023-02-01T19:59:41.995Z,97470.88
2023-02-01T20:02:16.675Z,97473.19
2023-02-01T20:04:47.018Z,97465.69
2023-02-01T20:07:17.309Z,97482.75
2023-02-01T20:09:47.590Z,97485.38
2023-02-01T20:12:18.949Z,97470.63
2023-02-01T20:14:49.712Z,97470.13
2023-02-01T20:17:22.773Z,97488.50
2023-02-01T20:19:53.236Z,97491.50
2023-02-01T20:22:23.559Z,97492.94
2023-02-01T20:24:54.005Z,97496.78
2023-02-01T20:27:25.266Z,97500.03
2023-02-01T20:29:55.647Z,97503.09
2023-02-01T20:32:28.787Z,97489.59
2023-02-01T20:34:59.033Z,97497.16
2023-02-01T20:37:29.399Z,97495.78
2023-02-01T20:39:59.850Z,97497.03
2023-02-01T20:42:30.217Z,97503.09
2023-02-01T20:45:00.545Z,97499.78
2023-02-01T20:47:33.732Z,97503.47
2023-02-01T20:50:04.268Z,97494.72
2023-02-01T20:52:34.851Z,97498.75
2023-02-01T20:55:05.294Z,97498.75
2023-02-01T20:57:36.713Z,97505.25
2023-02-01T21:00:10.801Z,97500.84
2023-02-01T21:02:43.735Z,97508.22
2023-02-01T21:05:14.395Z,97498.47
2023-02-01T21:07:45.072Z,97490.34
2023-02-01T21:10:15.725Z,97498.38
2023-02-01T21:12:46.161Z,97501.88
2023-02-01T21:15:16.928Z,97495.19
2023-02-01T21:17:50.367Z,97495.56
2023-02-01T21:20:21.815Z,97499.31
2023-02-01T21:22:52.283Z,97495.03
2023-02-01T21:25:23.051Z,97495.69
2023-02-01T21:27:53.596Z,97489.53
2023-02-01T21:30:24.827Z,97481.88
2023-02-01T21:32:59.604Z,97495.69
2023-02-01T21:35:30.302Z,97494.47
2023-02-01T21:38:00.711Z,97492.53
2023-02-01T21:40:30.960Z,97496.16
2023-02-01T21:43:01.340Z,97497.88
2023-02-01T21:45:31.747Z,97500.84
2023-02-01T21:48:04.993Z,97505.38
2023-02-01T21:50:35.700Z,97505.03
2023-02-01T21:53:07.007Z,97495.19
2023-02-01T21:55:37.125Z,97492.88
2023-02-01T21:58:12.725Z,97496.31
2023-02-01T22:00:45.811Z,97507.25
2023-02-01T22:03:18.906Z,97507.44
2023-02-01T22:05:53.509Z,97517.63
2023-02-01T22:08:23.828Z,97510.72
2023-02-01T22:10:54.190Z,97511.75
2023-02-01T22:13:24.619Z,97502.16
2023-02-01T22:15:55.061Z,97508.84
2023-02-01T22:18:28.445Z,97504.91
2023-02-01T22:21:03.312Z,97511.63
2023-02-01T22:23:33.766Z,97509.25
2023-02-01T22:26:09.164Z,97516.81
2023-02-01T22:28:39.840Z,97522.28
2023-02-01T22:31:12.564Z,97516.72
2023-02-01T22:33:45.550Z,97514.03
2023-02-01T22:36:17.812Z,97515.47
2023-02-01T22:38:49.654Z,97498.06
2023-02-01T22:41:20.826Z,97513.22
2023-02-01T22:43:51.207Z,97504.75
2023-02-01T22:46:25.512Z,97507.72
2023-02-01T22:48:58.994Z,97513.81
2023-02-01T22:51:31.869Z,97519.59
2023-02-01T22:54:02.745Z,97485.78
2023-02-01T22:56:36.716Z,97517.88
2023-02-01T22:59:10.498Z,97531.13
2023-02-01T23:01:40.925Z,97519.00
2023-02-01T23:04:16.803Z,97510.19
2023-02-01T23:06:47.701Z,97519.84
2023-02-01T23:09:21.655Z,97515.84
2023-02-01T23:11:52.702Z,97526.28
2023-02-01T23:14:23.374Z,97512.78
2023-02-01T23:16:53.917Z,97522.22
2023-02-01T23:19:27.060Z,97513.22
2023-02-01T23:21:57.410Z,97516.38
2023-02-01T23:24:27.963Z,97508.25
2023-02-01T23:26:58.311Z,97524.78
2023-02-01T23:29:28.583Z,97514.53
2023-02-01T23:31:59.036Z,97519.25
2023-02-01T23:34:32.074Z,97523.09
2023-02-01T23:37:02.431Z,97524.81
2023-02-01T23:39:33.280Z,97529.09
2023-02-01T23:42:04.931Z,97532.50
2023-02-01T23:44:35.653Z,97541.66
2023-02-01T23:47:06.060Z,97527.50
2023-02-01T23:49:39.082Z,97523.13
2023-02-01T23:52:10.164Z,97529.09
2023-02-01T23:54:40.544Z,97514.78
2023-02-01T23:57:11.096Z,97520.59
2023-02-01T23:59:42.623Z,97513.72
